createdAt,value
2023-01-15T00:02:22.864Z,69.40
2023-01-15T00:04:52.927Z,51.30
2023-01-15T00:07:20.046Z,72.70
2023-01-15T00:09:47.231Z,77.50
2023-01-15T00:12:14.365Z,61.90
2023-01-15T00:14:41.644Z,70.10
2023-01-15T00:17:08.831Z,54.40
2023-01-15T00:19:36.197Z,72.40
2023-01-15T00:22:03.317Z,65.10
2023-01-15T00:24:48.868Z,69.00
2023-01-15T00:27:34.644Z,73.00
2023-01-15T00:30:01.960Z,76.60
2023-01-15T00:32:29.933Z,75.80
2023-01-15T00:34:58.718Z,47.80
2023-01-15T00:37:25.850Z,54.30
2023-01-15T00:39:53.060Z,65.20
2023-01-15T00:42:20.139Z,77.00
2023-01-15T00:44:48.203Z,62.20
2023-01-15T00:47:15.419Z,60.30
2023-01-15T00:49:42.861Z,59.40
2023-01-15T00:52:10.602Z,55.40
2023-01-15T00:54:37.857Z,77.50
2023-01-15T00:57:04.983Z,81.50
2023-01-15T00:59:32.106Z,97.30
2023-01-15T01:01:59.663Z,77.70
2023-01-15T01:04:26.964Z,92.60
2023-01-15T01:06:55.655Z,73.10
2023-01-15T01:09:22.889Z,89.00
2023-01-15T01:11:50.003Z,85.50
2023-01-15T01:14:17.133Z,64.80
2023-01-15T01:16:44.350Z,100.90
2023-01-15T01:19:16.755Z,94.10
2023-01-15T01:21:45.109Z,107.20
2023-01-15T01:24:13.306Z,109.00
2023-01-15T01:26:40.413Z,123.90
2023-01-15T01:29:07.629Z,96.00
2023-01-15T01:31:34.814Z,90.40
2023-01-15T01:34:02.052Z,77.70
2023-01-15T01:36:31.672Z,95.80
2023-01-15T01:38:58.861Z,93.00
2023-01-15T01:41:26.116Z,100.90
2023-01-15T01:44:09.185Z,129.90
2023-01-15T01:46:36.445Z,113.50
2023-01-15T01:49:03.735Z,96.80
2023-01-15T01:51:34.697Z,111.00
2023-01-15T01:54:01.907Z,101.70
2023-01-15T01:56:29.161Z,112.60
2023-01-15T01:58:56.298Z,109.50
2023-01-15T02:01:24.823Z,67.10
2023-01-15T02:03:52.806Z,67.20
2023-01-15T02:06:20.141Z,78.30
2023-01-15T02:08:47.249Z,55.80
2023-01-15T02:11:19.599Z,61.90
2023-01-15T02:14:02.616Z,80.40
2023-01-15T02:16:37.321Z,56.90
2023-01-15T02:19:34.291Z,62.30
2023-01-15T02:22:11.539Z,76.60
2023-01-15T02:25:24.061Z,95.00
2023-01-15T02:28:37.373Z,125.50
2023-01-15T02:31:14.626Z,95.60
2023-01-15T02:34:03.766Z,81.00
2023-01-15T02:36:33.413Z,69.90
2023-01-15T02:39:02.462Z,71.40
2023-01-15T02:41:33.432Z,67.30
2023-01-15T02:44:00.588Z,58.20
2023-01-15T02:46:29.618Z,74.50
2023-01-15T02:48:57.214Z,55.00
2023-01-15T02:51:26.139Z,59.30
2023-01-15T02:53:55.414Z,63.90
2023-01-15T02:56:24.660Z,64.10
2023-01-15T02:58:53.428Z,60.10
2023-01-15T03:01:23.661Z,67.50
2023-01-15T03:04:07.092Z,76.40
2023-01-15T03:06:38.834Z,63.80
2023-01-15T03:09:06.747Z,57.70
2023-01-15T03:11:38.172Z,56.30
2023-01-15T03:14:14.931Z,71.10
2023-01-15T03:16:53.603Z,115.60
2023-01-15T03:19:23.647Z,144.10
2023-01-15T03:21:57.023Z,129.70
2023-01-15T03:24:47.688Z,118.40
2023-01-15T03:27:19.480Z,122.20
2023-01-15T03:30:20.669Z,119.50
2023-01-15T03:32:49.299Z,116.80
2023-01-15T03:36:07.910Z,121.00
2023-01-15T03:38:47.378Z,83.50
2023-01-15T03:41:49.352Z,84.50
2023-01-15T03:44:22.504Z,81.80
2023-01-15T03:47:01.786Z,85.00
2023-01-15T03:49:33.130Z,76.30
2023-01-15T03:52:25.621Z,65.90
2023-01-15T03:55:08.097Z,61.80
2023-01-15T03:57:50.328Z,60.00
2023-01-15T04:00:47.577Z,72.00
2023-01-15T04:03:17.031Z,76.50
2023-01-15T04:05:44.213Z,84.60
2023-01-15T07:22:09.846Z,101.70
2023-01-15T07:24:37.362Z,113.20
2023-01-15T07:27:04.984Z,92.00
2023-01-15T07:29:32.125Z,97.20
2023-01-15T07:31:59.507Z,105.00
2023-01-15T07:34:26.783Z,90.00
2023-01-15T07:36:54.588Z,79.80
2023-01-15T07:39:21.859Z,80.80
2023-01-15T07:42:07.480Z,62.60
2023-01-15T07:44:54.088Z,65.60
2023-01-15T07:47:41.952Z,81.10
2023-01-15T07:50:27.555Z,60.50
2023-01-15T07:52:54.719Z,52.00
2023-01-15T07:55:22.461Z,60.20
2023-01-15T07:57:50.690Z,49.80
2023-01-15T08:00:21.314Z,64.10
2023-01-15T08:02:50.941Z,57.30
2023-01-15T08:05:18.436Z,57.40
2023-01-15T08:07:45.875Z,56.10
2023-01-15T08:10:13.659Z,51.20
2023-01-15T08:12:59.270Z,51.30
2023-01-15T08:15:26.550Z,49.70
2023-01-15T08:17:54.080Z,52.30
2023-01-15T08:20:26.066Z,47.30
2023-01-15T08:22:53.581Z,49.50
2023-01-15T08:25:22.250Z,35.30
2023-01-15T08:27:49.459Z,61.50
2023-01-15T08:30:18.430Z,37.60
2023-01-15T08:32:45.738Z,56.20
2023-01-15T08:35:13.545Z,40.20
2023-01-15T08:37:41.695Z,41.80
2023-01-15T08:40:10.642Z,40.20
2023-01-15T08:42:37.764Z,44.20
2023-01-15T08:45:05.477Z,50.70
2023-01-15T08:47:32.845Z,43.10
2023-01-15T08:50:00.138Z,44.60
2023-01-15T08:52:27.450Z,36.40
2023-01-15T08:54:54.537Z,47.50
2023-01-15T08:57:21.908Z,43.30
2023-01-15T08:59:49.182Z,40.80
2023-01-15T09:02:18.402Z,41.90
2023-01-15T09:04:45.824Z,51.10
2023-01-15T09:07:13.269Z,60.60
2023-01-15T09:09:40.442Z,64.60
2023-01-15T09:12:07.715Z,79.50
2023-01-15T09:14:57.442Z,72.60
2023-01-15T09:17:22.443Z,65.20
2023-01-15T09:19:49.803Z,70.80
2023-01-15T09:22:16.947Z,67.10
2023-01-15T09:24:44.581Z,73.50
2023-01-15T09:27:12.325Z,81.40
2023-01-15T09:29:39.409Z,78.00
2023-01-15T09:32:08.600Z,67.60
2023-01-15T09:34:35.779Z,71.70
2023-01-15T09:37:02.938Z,65.10
2023-01-15T09:39:30.136Z,70.10
2023-01-15T09:42:10.010Z,74.00
2023-01-15T09:45:18.779Z,68.70
2023-01-15T09:48:10.645Z,79.30
2023-01-15T09:50:45.205Z,75.80
2023-01-15T09:53:41.854Z,69.80
2023-01-15T09:56:14.617Z,76.00
2023-01-15T09:58:42.495Z,70.80
2023-01-15T10:01:14.301Z,64.10
2023-01-15T10:03:52.934Z,76.60
2023-01-15T10:06:23.484Z,84.80
2023-01-15T10:08:51.069Z,76.70
2023-01-15T10:11:18.939Z,79.60
2023-01-15T10:13:47.919Z,96.30
2023-01-15T10:16:29.661Z,83.20
2023-01-15T10:18:58.309Z,90.80
2023-01-15T10:21:51.463Z,94.50
2023-01-15T10:24:21.855Z,87.20
2023-01-15T10:26:59.458Z,85.70
2023-01-15T10:29:36.721Z,80.50
2023-01-15T10:32:10.511Z,76.30
2023-01-15T10:35:04.233Z,72.90
2023-01-15T10:37:34.292Z,76.00
2023-01-15T10:40:23.596Z,71.20
2023-01-15T10:43:10.757Z,83.40
2023-01-15T10:45:49.023Z,84.30
2023-01-15T10:48:19.435Z,74.30
2023-01-15T10:50:47.481Z,73.30
2023-01-15T10:53:31.693Z,69.20
2023-01-15T10:56:05.665Z,70.30
2023-01-15T10:58:43.211Z,56.50
2023-01-15T11:01:13.786Z,69.30
2023-01-15T11:03:42.502Z,90.30
2023-01-15T11:06:20.450Z,66.10
2023-01-15T11:09:09.381Z,71.00
2023-01-15T11:12:00.147Z,82.20
2023-01-15T11:14:55.839Z,84.00
2023-01-15T11:17:42.936Z,72.80
2023-01-15T11:20:20.451Z,95.80
2023-01-15T11:22:47.776Z,99.00
2023-01-15T11:25:15.141Z,79.30
2023-01-15T11:27:42.295Z,76.40
2023-01-15T11:30:29.419Z,88.50
2023-01-15T11:32:58.875Z,75.80
2023-01-15T11:35:26.501Z,79.30
2023-01-15T11:38:15.821Z,79.10
2023-01-15T11:40:54.006Z,66.10
2023-01-15T11:43:41.345Z,69.70
2023-01-15T11:46:59.369Z,79.30
2023-01-15T11:49:45.341Z,94.10
2023-01-15T11:52:18.183Z,100.70
2023-01-15T11:54:47.587Z,91.40
2023-01-15T11:57:27.242Z,82.00
2023-01-15T11:59:55.120Z,99.00
2023-01-15T12:02:47.574Z,90.10
2023-01-15T12:05:35.920Z,74.30
2023-01-15T12:08:13.561Z,77.70
2023-01-15T12:11:25.236Z,78.90
2023-01-15T12:14:29.781Z,108.60
2023-01-15T12:17:00.106Z,87.10
2023-01-15T12:19:45.789Z,81.80
2023-01-15T12:22:31.360Z,93.40
2023-01-15T12:25:26.382Z,80.80
2023-01-15T12:28:01.271Z,89.90
2023-01-15T12:31:01.568Z,98.40
2023-01-15T12:33:51.998Z,90.10
2023-01-15T12:36:25.096Z,95.50
2023-01-15T12:38:54.936Z,96.50
2023-01-15T12:41:49.826Z,94.90
2023-01-15T12:44:38.697Z,94.30
2023-01-15T12:47:08.150Z,82.30
2023-01-15T12:49:46.791Z,92.30
2023-01-15T12:52:25.426Z,88.70
2023-01-15T12:54:58.567Z,91.70
2023-01-15T12:57:33.718Z,95.70
2023-01-15T13:00:07.561Z,97.20
2023-01-15T13:02:40.798Z,83.10
2023-01-15T13:05:26.911Z,83.70
2023-01-15T16:13:49.460Z,109.00
2023-01-15T16:16:17.063Z,109.50
2023-01-15T16:18:46.951Z,112.60
2023-01-15T16:21:30.875Z,124.60
2023-01-15T16:26:56.595Z,124.80
2023-01-15T16:29:26.291Z,125.10
2023-01-15T16:31:56.337Z,127.30
2023-01-15T16:34:28.695Z,140.60
2023-01-15T16:36:55.890Z,123.40
2023-01-15T16:39:27.751Z,132.10
2023-01-15T16:41:57.840Z,131.60
2023-01-15T16:44:50.788Z,125.90
2023-01-15T16:47:23.187Z,122.80
2023-01-15T16:49:51.033Z,113.80
2023-01-15T16:52:41.944Z,102.40
2023-01-15T16:55:34.610Z,106.50
2023-01-15T16:58:15.269Z,111.90
2023-01-15T17:00:44.731Z,118.20
2023-01-15T17:03:22.470Z,116.10
2023-01-15T17:05:52.762Z,114.50
2023-01-15T17:08:21.506Z,89.50
2023-01-15T17:10:57.457Z,136.30
2023-01-15T17:13:35.791Z,106.60
2023-01-15T17:16:15.735Z,123.90
2023-01-15T17:18:43.316Z,120.40
2023-01-15T17:21:17.906Z,117.10
2023-01-15T17:23:45.335Z,127.60
2023-01-15T17:26:16.103Z,127.10
2023-01-15T17:28:43.747Z,133.40
2023-01-15T17:31:32.419Z,134.30
2023-01-15T17:34:01.245Z,127.70
2023-01-15T17:36:29.029Z,111.50
2023-01-15T17:38:56.509Z,127.70
2023-01-15T17:41:23.981Z,121.40
2023-01-15T17:43:51.503Z,120.10
2023-01-15T17:46:20.749Z,121.30
2023-01-15T17:48:48.816Z,121.10
2023-01-15T17:51:16.332Z,107.30
2023-01-15T17:53:44.144Z,116.50
2023-01-15T17:56:29.807Z,110.20
2023-01-15T17:59:15.684Z,118.30
2023-01-15T18:02:02.941Z,125.00
2023-01-15T18:04:54.157Z,114.70
2023-01-15T18:07:22.882Z,123.20
2023-01-15T18:09:50.635Z,120.70
2023-01-15T18:12:17.688Z,104.40
2023-01-15T18:14:44.868Z,119.00
2023-01-15T18:17:12.140Z,105.00
2023-01-15T18:19:39.336Z,113.90
2023-01-15T18:22:06.565Z,110.10
2023-01-15T18:24:33.858Z,109.40
2023-01-15T18:27:00.965Z,102.90
2023-01-15T18:29:28.304Z,116.50
2023-01-15T18:31:55.601Z,99.80
2023-01-15T18:34:22.954Z,121.10
2023-01-15T18:36:51.109Z,136.80
2023-01-15T18:39:18.325Z,129.00
2023-01-15T18:41:45.756Z,130.80
2023-01-15T18:44:33.444Z,115.90
2023-01-15T18:47:02.315Z,118.60
2023-01-15T18:49:30.193Z,118.80
2023-01-15T18:52:16.890Z,129.40
2023-01-15T18:54:44.540Z,135.50
2023-01-15T18:57:11.955Z,124.40
2023-01-15T18:59:39.773Z,131.30
2023-01-15T19:02:07.461Z,112.30
2023-01-15T19:04:34.965Z,124.70
2023-01-15T19:07:04.057Z,156.80
2023-01-15T19:09:31.630Z,127.90
2023-01-15T19:11:58.940Z,142.30
2023-01-15T19:14:45.238Z,139.00
2023-01-15T19:17:39.861Z,157.20
2023-01-15T19:20:08.823Z,152.40
2023-01-15T19:22:55.107Z,147.10
2023-01-15T19:25:23.870Z,166.50
2023-01-15T19:27:51.145Z,146.00
2023-01-15T19:30:18.812Z,152.30
2023-01-15T19:32:46.147Z,131.30
2023-01-15T19:35:13.374Z,149.70
2023-01-15T19:37:40.633Z,158.00
2023-01-15T19:40:12.918Z,151.40
2023-01-15T19:42:59.085Z,141.80
2023-01-15T19:45:44.876Z,135.50
2023-01-15T19:48:32.327Z,139.60
2023-01-15T19:51:01.004Z,128.70
2023-01-15T19:53:29.316Z,137.80
2023-01-15T19:55:57.490Z,141.00
2023-01-15T19:58:25.586Z,135.70
2023-01-15T20:00:53.286Z,119.00
2023-01-15T20:03:20.727Z,127.10
2023-01-15T20:05:48.180Z,108.30
2023-01-15T20:08:18.123Z,117.60
2023-01-15T20:10:49.285Z,131.20
2023-01-15T20:13:38.117Z,122.90
2023-01-15T20:16:07.316Z,121.70
2023-01-15T20:18:35.902Z,108.60
2023-01-15T20:21:03.286Z,109.90
2023-01-15T20:23:30.837Z,135.90
2023-01-15T20:26:03.029Z,125.00
2023-01-15T20:28:30.413Z,145.80
2023-01-15T20:30:58.811Z,131.70
2023-01-15T20:33:26.005Z,154.30
2023-01-15T20:35:55.145Z,145.10
2023-01-15T20:38:23.485Z,133.40
2023-01-15T20:40:52.313Z,112.40
2023-01-15T20:43:38.919Z,113.20
2023-01-15T20:46:10.834Z,92.40
2023-01-15T20:48:57.194Z,107.30
2023-01-15T20:51:24.374Z,83.00
2023-01-15T20:53:53.598Z,101.30
2023-01-15T20:56:21.106Z,72.90
2023-01-15T20:58:48.704Z,112.00
2023-01-15T21:01:16.395Z,112.70
2023-01-15T21:03:43.691Z,107.70
2023-01-15T21:06:11.497Z,87.90
2023-01-15T21:08:41.135Z,89.40
2023-01-15T21:11:08.688Z,92.80
2023-01-15T21:13:36.846Z,81.40
2023-01-15T21:16:05.471Z,100.40
2023-01-15T21:18:33.778Z,87.10
2023-01-15T21:21:01.003Z,91.80
2023-01-15T21:23:28.122Z,101.30
2023-01-15T21:26:02.057Z,84.00
2023-01-15T21:28:29.611Z,82.40
2023-01-15T21:30:57.058Z,81.10
2023-01-15T21:33:24.413Z,82.00
2023-01-15T21:35:51.828Z,76.60
2023-01-15T21:38:19.114Z,88.20
2023-01-15T21:40:46.993Z,68.40
2023-01-15T21:43:33.600Z,92.50
2023-01-15T21:46:05.549Z,83.90
2023-01-15T21:48:33.011Z,84.00
2023-01-15T21:51:04.578Z,85.40
2023-01-15T21:53:32.775Z,105.80
2023-01-15T21:56:00.292Z,86.30
2023-01-15T21:58:27.657Z,89.40
2023-01-15T22:00:55.070Z,76.60
2023-01-15T22:03:22.506Z,75.90
2023-01-15T22:05:49.762Z,78.50
2023-01-15T22:08:17.719Z,70.30
2023-01-15T22:10:45.183Z,86.60
2023-01-15T22:13:12.813Z,79.80
2023-01-15T22:15:40.419Z,76.20
2023-01-15T22:18:07.927Z,77.20
2023-01-15T22:20:35.193Z,79.40
2023-01-15T22:23:02.535Z,74.90
2023-01-15T22:25:29.872Z,76.50
2023-01-15T22:27:58.747Z,84.40
2023-01-15T22:30:26.228Z,79.90
2023-01-15T22:32:53.840Z,86.60
2023-01-15T22:35:21.752Z,68.10
2023-01-15T22:37:48.918Z,74.70
2023-01-15T22:40:16.156Z,72.30
2023-01-15T22:42:44.275Z,69.80
2023-01-15T22:45:11.550Z,69.60
2023-01-15T22:47:38.869Z,80.10
2023-01-15T22:50:06.215Z,70.50
2023-01-15T22:52:33.577Z,73.70
2023-01-15T22:55:00.898Z,72.20
2023-01-15T22:57:31.200Z,82.50
2023-01-15T22:59:58.995Z,85.70
2023-01-15T23:02:58.644Z,88.30
2023-01-15T23:05:25.829Z,100.60
2023-01-15T23:07:53.207Z,82.60
2023-01-15T23:10:20.554Z,78.00
2023-01-15T23:12:47.830Z,77.60
2023-01-15T23:15:16.500Z,76.20
2023-01-15T23:17:44.269Z,73.50
2023-01-15T23:20:12.125Z,82.00
2023-01-15T23:22:39.353Z,78.40
2023-01-15T23:25:09.004Z,93.00
2023-01-15T23:27:36.535Z,92.00
2023-01-15T23:30:05.029Z,87.30
2023-01-15T23:32:32.715Z,85.30
2023-01-15T23:35:00.033Z,87.40
2023-01-15T23:37:27.144Z,98.00
2023-01-15T23:39:54.303Z,85.60
2023-01-15T23:42:50.679Z,83.50
2023-01-15T23:45:36.768Z,79.70
2023-01-15T23:48:04.097Z,83.10
2023-01-15T23:50:31.464Z,81.80
2023-01-15T23:52:58.973Z,92.40
2023-01-15T23:55:26.175Z,86.90
2023-01-15T23:57:53.388Z,100.20
